Time,TemperatureF,DewpointF,PressureIn,WindDirection,WindDirectionDegrees,WindSpeedMPH,WindSpeedGustMPH,Humidity,HourlyPrecipIn,Conditions,Clouds,dailyrainin,SoftwareType,DateUTC
2013-07-23 00:01:00,73.7,71.9,29.84,SW,232,4.0,4.0,94,0.00,,,0.00,Wunderground v.1.15,2013-07-23 04:01:00,
2013-07-23 00:11:00,73.5,72.0,29.84,WSW,241,4.0,4.0,95,0.00,,,0.00,Wunderground v.1.15,2013-07-23 04:11:00,
2013-07-23 00:21:00,73.3,71.8,29.84,WSW,244,5.0,7.0,95,0.00,,,0.00,Wunderground v.1.15,2013-07-23 04:21:00,
2013-07-23 00:31:00,73.2,71.4,29.83,WSW,249,6.0,6.0,94,0.00,,,0.00,Wunderground v.1.15,2013-07-23 04:31:00,
2013-07-23 00:41:00,73.0,71.2,29.83,SW,227,6.0,7.0,94,0.00,,,0.00,Wunderground v.1.15,2013-07-23 04:41:00,
2013-07-23 00:51:00,72.7,70.9,29.82,SW,220,5.0,5.0,94,0.00,,,0.00,Wunderground v.1.15,2013-07-23 04:51:00,
2013-07-23 01:01:00,72.3,70.5,29.82,West,271,3.0,4.0,94,0.00,,,0.00,Wunderground v.1.15,2013-07-23 05:01:00,
2013-07-23 01:11:00,72.0,70.5,29.82,WSW,251,3.0,4.0,95,0.00,,,0.00,Wunderground v.1.15,2013-07-23 05:11:00,
2013-07-23 01:21:00,71.9,70.4,29.82,WSW,248,4.0,4.0,95,0.00,,,0.00,Wunderground v.1.15,2013-07-23 05:21:00,
2013-07-23 01:32:00,71.7,70.2,29.81,WSW,245,3.0,5.0,95,0.00,,,0.00,Wunderground v.1.15,2013-07-23 05:32:00,
2013-07-23 01:52:00,71.4,70.2,29.81,SW,217,2.0,3.0,96,0.00,,,0.00,Wunderground v.1.15,2013-07-23 05:52:00,
2013-07-23 02:01:00,71.3,70.1,29.81,SW,232,2.0,3.0,96,0.00,,,0.00,Wunderground v.1.15,2013-07-23 06:01:00,
2013-07-23 02:12:00,71.2,70.0,29.81,SW,220,3.0,3.0,96,0.00,,,0.00,Wunderground v.1.15,2013-07-23 06:12:00,
2013-07-23 02:22:00,71.2,70.0,29.81,WNW,283,2.0,2.0,96,0.00,,,0.00,Wunderground v.1.15,2013-07-23 06:22:00,
2013-07-23 02:32:00,71.2,70.0,29.81,NW,311,1.0,1.0,96,0.00,,,0.00,Wunderground v.1.15,2013-07-23 06:32:00,
2013-07-23 02:42:00,71.2,70.0,29.81,WSW,247,1.0,2.0,96,0.00,,,0.00,Wunderground v.1.15,2013-07-23 06:42:00,
2013-07-23 02:52:00,71.2,70.3,29.81,WSW,257,1.0,1.0,97,0.00,,,0.00,Wunderground v.1.15,2013-07-23 06:52:00,
2013-07-23 03:02:00,71.4,70.5,29.81,WSW,254,2.0,4.0,97,0.00,,,0.00,Wunderground v.1.15,2013-07-23 07:02:00,
2013-07-23 03:12:00,71.5,70.6,29.81,WSW,241,3.0,3.0,97,0.00,,,0.00,Wunderground v.1.15,2013-07-23 07:12:00,
2013-07-23 03:22:00,71.6,70.4,29.81,WSW,242,4.0,4.0,96,0.00,,,0.00,Wunderground v.1.15,2013-07-23 07:22:00,
2013-07-23 03:32:00,71.6,70.4,29.81,West,260,3.0,3.0,96,0.00,,,0.00,Wunderground v.1.15,2013-07-23 07:32:00,
2013-07-23 03:42:00,71.5,70.3,29.81,WSW,238,4.0,9.0,96,0.00,,,0.00,Wunderground v.1.15,2013-07-23 07:42:00,
2013-07-23 03:51:00,71.5,70.3,29.81,SW,232,4.0,4.0,96,0.00,,,0.00,Wunderground v.1.15,2013-07-23 07:51:00,
2013-07-23 04:02:00,71.3,70.1,29.80,SW,227,5.0,5.0,96,0.00,,,0.00,Wunderground v.1.15,2013-07-23 08:02:00,
2013-07-23 04:12:00,71.3,70.4,29.80,SW,227,4.0,4.0,97,0.00,,,0.00,Wunderground v.1.15,2013-07-23 08:12:00,
2013-07-23 04:21:00,71.2,70.3,29.81,West,263,3.0,3.0,97,0.00,,,0.00,Wunderground v.1.15,2013-07-23 08:21:00,
2013-07-23 04:31:00,71.1,70.2,29.81,WSW,251,2.0,6.0,97,0.00,,,0.00,Wunderground v.1.15,2013-07-23 08:31:00,
2013-07-23 04:41:00,71.0,70.1,29.82,West,270,2.0,2.0,97,0.00,,,0.00,Wunderground v.1.15,2013-07-23 08:41:00,
2013-07-23 04:51:00,70.7,69.5,29.82,WSW,247,1.0,3.0,96,0.00,,,0.00,Wunderground v.1.15,2013-07-23 08:51:00,
2013-07-23 05:02:00,70.5,69.3,29.82,SW,234,2.0,3.0,96,0.00,,,0.00,Wunderground v.1.15,2013-07-23 09:02:00,
2013-07-23 05:11:00,70.4,69.2,29.82,SW,232,2.0,4.0,96,0.00,,,0.00,Wunderground v.1.15,2013-07-23 09:11:00,
2013-07-23 05:21:00,70.3,69.1,29.81,WSW,252,1.0,1.0,96,0.00,,,0.00,Wunderground v.1.15,2013-07-23 09:21:00,
2013-07-23 05:31:00,70.1,68.6,29.82,SW,223,2.0,2.0,95,0.00,,,0.00,Wunderground v.1.15,2013-07-23 09:31:00,
2013-07-23 05:41:00,70.1,68.6,29.82,SW,225,2.0,2.0,95,0.00,,,0.00,Wunderground v.1.15,2013-07-23 09:41:00,
2013-07-23 05:51:00,69.9,68.4,29.82,SW,225,0.0,0.0,95,0.00,,,0.00,Wunderground v.1.15,2013-07-23 09:51:00,
2013-07-23 06:01:00,69.6,68.4,29.83,WSW,238,1.0,3.0,96,0.00,,,0.00,Wunderground v.1.15,2013-07-23 10:01:00,
2013-07-23 06:11:00,69.4,68.2,29.83,West,261,2.0,2.0,96,0.00,,,0.00,Wunderground v.1.15,2013-07-23 10:11:00,
2013-07-23 06:21:00,69.4,68.2,29.83,West,273,2.0,7.0,96,0.00,,,0.00,Wunderground v.1.15,2013-07-23 10:21:00,
2013-07-23 06:31:00,69.5,68.0,29.83,WSW,248,3.0,3.0,95,0.00,,,0.00,Wunderground v.1.15,2013-07-23 10:31:00,
2013-07-23 06:41:00,69.6,68.1,29.83,SW,236,3.0,3.0,95,0.00,,,0.00,Wunderground v.1.15,2013-07-23 10:41:00,
2013-07-23 06:51:00,69.7,68.2,29.83,WSW,244,3.0,4.0,95,0.00,,,0.00,Wunderground v.1.15,2013-07-23 10:51:00,
2013-07-23 07:01:00,69.8,68.0,29.83,SW,227,1.0,1.0,94,0.00,,,0.00,Wunderground v.1.15,2013-07-23 11:01:00,
2013-07-23 07:12:00,69.9,68.4,29.84,SW,227,0.0,1.0,95,0.00,,,0.00,Wunderground v.1.15,2013-07-23 11:12:00,
2013-07-23 07:22:00,70.2,68.7,29.84,WSW,258,2.0,3.0,95,0.00,,,0.00,Wunderground v.1.15,2013-07-23 11:22:00,
2013-07-23 07:32:00,70.5,68.7,29.84,WSW,238,3.0,3.0,94,0.00,,,0.00,Wunderground v.1.15,2013-07-23 11:32:00,
2013-07-23 07:42:00,71.0,69.2,29.84,WSW,243,1.0,3.0,94,0.00,,,0.00,Wunderground v.1.15,2013-07-23 11:42:00,
2013-07-23 07:52:00,71.4,69.3,29.84,SW,236,3.0,3.0,93,0.00,,,0.00,Wunderground v.1.15,2013-07-23 11:52:00,
2013-07-23 08:01:00,71.9,69.8,29.84,West,266,4.0,4.0,93,0.00,,,0.00,Wunderground v.1.15,2013-07-23 12:01:00,
2013-07-23 08:12:00,72.5,70.0,29.83,SW,215,3.0,3.0,92,0.00,,,0.00,Wunderground v.1.15,2013-07-23 12:12:00,
2013-07-23 08:22:00,73.0,70.2,29.84,West,263,3.0,4.0,91,0.00,,,0.00,Wunderground v.1.15,2013-07-23 12:22:00,
2013-07-23 08:32:00,73.0,70.2,29.83,WSW,251,3.0,3.0,91,0.00,,,0.00,Wunderground v.1.15,2013-07-23 12:32:00,
2013-07-23 08:42:00,73.3,70.2,29.83,WSW,248,3.0,3.0,90,0.00,,,0.00,Wunderground v.1.15,2013-07-23 12:42:00,
2013-07-23 08:52:00,73.9,70.8,29.84,WSW,246,4.0,7.0,90,0.00,,,0.00,Wunderground v.1.15,2013-07-23 12:52:00,
2013-07-23 09:02:00,74.2,70.7,29.84,WSW,242,5.0,9.0,89,0.00,,,0.00,Wunderground v.1.15,2013-07-23 13:02:00,
2013-07-23 09:12:00,74.4,70.9,29.84,West,275,6.0,8.0,89,0.00,,,0.00,Wunderground v.1.15,2013-07-23 13:12:00,
2013-07-23 09:22:00,75.1,71.6,29.84,WSW,240,5.0,6.0,89,0.00,,,0.00,Wunderground v.1.15,2013-07-23 13:22:00,
2013-07-23 09:32:00,75.6,71.8,29.85,WSW,253,4.0,4.0,88,0.00,,,0.00,Wunderground v.1.15,2013-07-23 13:32:00,
2013-07-23 09:42:00,76.2,71.7,29.85,WSW,252,4.0,5.0,86,0.00,,,0.00,Wunderground v.1.15,2013-07-23 13:42:00,
2013-07-23 09:52:00,76.7,71.5,29.85,West,261,5.0,8.0,84,0.00,,,0.00,Wunderground v.1.15,2013-07-23 13:52:00,
2013-07-23 10:02:00,77.1,71.9,29.85,SW,228,5.0,5.0,84,0.00,,,0.00,Wunderground v.1.15,2013-07-23 14:02:00,
2013-07-23 10:12:00,77.7,72.5,29.85,WSW,240,6.0,8.0,84,0.00,,,0.00,Wunderground v.1.15,2013-07-23 14:12:00,
2013-07-23 10:22:00,78.1,71.8,29.85,WSW,246,6.0,6.0,81,0.00,,,0.00,Wunderground v.1.15,2013-07-23 14:22:00,
2013-07-23 10:32:00,78.6,72.6,29.84,West,265,5.0,6.0,82,0.00,,,0.00,Wunderground v.1.15,2013-07-23 14:32:00,
2013-07-23 10:52:00,79.9,71.3,29.85,West,260,7.0,9.0,75,0.00,,,0.00,Wunderground v.1.15,2013-07-23 14:52:00,
2013-07-23 11:02:00,80.4,70.5,29.84,West,264,7.0,8.0,72,0.00,,,0.00,Wunderground v.1.15,2013-07-23 15:02:00,
2013-07-23 11:11:00,80.9,71.8,29.85,WSW,252,7.0,7.0,74,0.00,,,0.00,Wunderground v.1.15,2013-07-23 15:11:00,
2013-07-23 11:21:00,81.1,72.0,29.85,West,279,7.0,8.0,74,0.00,,,0.00,Wunderground v.1.15,2013-07-23 15:21:00,
2013-07-23 11:31:00,81.9,71.2,29.85,West,278,6.0,6.0,70,0.00,,,0.00,Wunderground v.1.15,2013-07-23 15:31:00,
2013-07-23 11:41:00,81.9,72.0,29.85,West,275,6.0,6.0,72,0.00,,,0.00,Wunderground v.1.15,2013-07-23 15:41:00,
2013-07-23 11:51:00,82.4,71.2,29.85,WSW,245,5.0,5.0,69,0.00,,,0.00,Wunderground v.1.15,2013-07-23 15:51:00,
2013-07-23 12:02:00,82.3,72.0,29.85,SW,233,7.0,7.0,71,0.00,,,0.00,Wunderground v.1.15,2013-07-23 16:02:00,
2013-07-23 12:11:00,82.8,71.2,29.85,West,270,7.0,7.0,68,0.00,,,0.00,Wunderground v.1.15,2013-07-23 16:11:00,
2013-07-23 12:21:00,83.1,71.4,29.85,West,263,5.0,8.0,68,0.00,,,0.00,Wunderground v.1.15,2013-07-23 16:21:00,
2013-07-23 12:31:00,83.6,71.9,29.85,West,273,7.0,7.0,68,0.00,,,0.00,Wunderground v.1.15,2013-07-23 16:31:00,
2013-07-23 12:41:00,84.1,71.1,29.85,West,278,5.0,7.0,65,0.00,,,0.00,Wunderground v.1.15,2013-07-23 16:41:00,
2013-07-23 12:52:00,84.2,70.7,29.84,WSW,251,6.0,6.0,64,0.00,,,0.00,Wunderground v.1.15,2013-07-23 16:52:00,
2013-07-23 13:01:00,84.5,70.0,29.84,SW,227,6.0,6.0,62,0.00,,,0.00,Wunderground v.1.15,2013-07-23 17:01:00,
2013-07-23 13:11:00,85.0,69.1,29.84,West,265,6.0,6.0,59,0.00,,,0.00,Wunderground v.1.15,2013-07-23 17:11:00,
2013-07-23 13:22:00,85.1,70.6,29.84,West,270,6.0,7.0,62,0.00,,,0.00,Wunderground v.1.15,2013-07-23 17:22:00,
2013-07-23 13:32:00,85.1,70.6,29.84,WNW,286,9.0,9.0,62,0.00,,,0.00,Wunderground v.1.15,2013-07-23 17:32:00,
2013-07-23 13:42:00,85.1,72.5,29.83,West,276,8.0,9.0,66,0.00,,,0.00,Wunderground v.1.15,2013-07-23 17:42:00,
2013-07-23 13:52:00,85.3,71.7,29.82,SW,234,8.0,8.0,64,0.00,,,0.00,Wunderground v.1.15,2013-07-23 17:52:00,
2013-07-23 14:12:00,86.0,71.5,29.81,WNW,301,6.0,6.0,62,0.00,,,0.00,Wunderground v.1.15,2013-07-23 18:12:00,
2013-07-23 14:22:00,85.8,73.1,29.81,West,267,8.0,8.0,66,0.00,,,0.00,Wunderground v.1.15,2013-07-23 18:22:00,
2013-07-23 14:32:00,86.1,69.6,29.80,West,280,6.0,6.0,58,0.00,,,0.00,Wunderground v.1.15,2013-07-23 18:32:00,
2013-07-23 14:42:00,86.3,71.3,29.80,WSW,242,6.0,6.0,61,0.00,,,0.00,Wunderground v.1.15,2013-07-23 18:42:00,
2013-07-23 14:52:00,86.6,73.0,29.80,SW,219,6.0,12.0,64,0.00,,,0.00,Wunderground v.1.15,2013-07-23 18:52:00,
2013-07-23 15:01:00,86.8,71.7,29.79,SW,219,6.0,6.0,61,0.00,,,0.00,Wunderground v.1.15,2013-07-23 19:01:00,
2013-07-23 15:12:00,87.1,72.0,29.79,WNW,294,6.0,7.0,61,0.00,,,0.00,Wunderground v.1.15,2013-07-23 19:12:00,
2013-07-23 15:22:00,87.0,74.7,29.78,West,267,5.0,5.0,67,0.00,,,0.00,Wunderground v.1.15,2013-07-23 19:22:00,
2013-07-23 15:32:00,87.0,72.4,29.78,West,260,6.0,6.0,62,0.00,,,0.00,Wunderground v.1.15,2013-07-23 19:32:00,
2013-07-23 15:42:00,87.0,73.3,29.78,WSW,248,5.0,6.0,64,0.00,,,0.00,Wunderground v.1.15,2013-07-23 19:42:00,
2013-07-23 15:52:00,87.0,71.9,29.78,WSW,252,6.0,6.0,61,0.00,,,0.00,Wunderground v.1.15,2013-07-23 19:52:00,
2013-07-23 16:01:00,86.7,73.1,29.77,WSW,237,8.0,10.0,64,0.00,,,0.00,Wunderground v.1.15,2013-07-23 20:01:00,
2013-07-23 16:12:00,87.1,73.4,29.77,WSW,249,6.0,6.0,64,0.00,,,0.00,Wunderground v.1.15,2013-07-23 20:12:00,
2013-07-23 16:22:00,87.0,72.9,29.76,WSW,257,7.0,7.0,63,0.00,,,0.00,Wunderground v.1.15,2013-07-23 20:22:00,
2013-07-23 16:32:00,86.9,73.7,29.76,SW,236,6.0,6.0,65,0.00,,,0.00,Wunderground v.1.15,2013-07-23 20:32:00,
2013-07-23 16:42:00,85.8,73.1,29.76,West,264,8.0,8.0,66,0.00,,,0.00,Wunderground v.1.15,2013-07-23 20:42:00,
2013-07-23 16:52:00,86.3,72.2,29.75,SW,229,8.0,8.0,63,0.00,,,0.00,Wunderground v.1.15,2013-07-23 20:52:00,
2013-07-23 17:02:00,85.6,73.4,29.75,SW,236,7.0,8.0,67,0.00,,,0.00,Wunderground v.1.15,2013-07-23 21:02:00,
2013-07-23 17:12:00,84.8,73.5,29.75,SW,226,7.0,7.0,69,0.00,,,0.00,Wunderground v.1.15,2013-07-23 21:12:00,
2013-07-23 17:21:00,85.1,73.8,29.75,SW,234,7.0,9.0,69,0.00,,,0.00,Wunderground v.1.15,2013-07-23 21:21:00,
2013-07-23 17:31:00,85.4,73.6,29.75,SSW,206,8.0,8.0,68,0.00,,,0.00,Wunderground v.1.15,2013-07-23 21:31:00,
2013-07-23 17:41:00,84.2,74.2,29.75,WSW,253,7.0,7.0,72,0.00,,,0.00,Wunderground v.1.15,2013-07-23 21:41:00,
2013-07-23 17:52:00,83.4,73.4,29.75,West,266,6.0,6.0,72,0.00,,,0.00,Wunderground v.1.15,2013-07-23 21:52:00,
2013-07-23 18:02:00,83.0,73.9,29.75,SW,234,5.0,5.0,74,0.00,,,0.00,Wunderground v.1.15,2013-07-23 22:02:00,
2013-07-23 18:11:00,82.6,74.3,29.75,WSW,244,5.0,6.0,76,0.00,,,0.00,Wunderground v.1.15,2013-07-23 22:11:00,
2013-07-23 18:21:00,82.3,74.0,29.75,SW,218,5.0,7.0,76,0.00,,,0.00,Wunderground v.1.15,2013-07-23 22:21:00,
2013-07-23 18:31:00,82.1,74.2,29.75,West,277,6.0,6.0,77,0.00,,,0.00,Wunderground v.1.15,2013-07-23 22:31:00,
2013-07-23 18:41:00,82.0,74.1,29.75,SW,236,5.0,5.0,77,0.00,,,0.00,Wunderground v.1.15,2013-07-23 22:41:00,
2013-07-23 18:51:00,82.7,74.4,29.75,WSW,248,6.0,8.0,76,0.00,,,0.00,Wunderground v.1.15,2013-07-23 22:51:00,
2013-07-23 19:02:00,82.5,73.8,29.74,WSW,242,6.0,6.0,75,0.00,,,0.00,Wunderground v.1.15,2013-07-23 23:02:00,
2013-07-23 19:12:00,82.3,74.4,29.75,South,169,5.0,6.0,77,0.00,,,0.00,Wunderground v.1.15,2013-07-23 23:12:00,
2013-07-23 19:21:00,81.8,74.3,29.74,SSW,208,4.0,4.0,78,0.00,,,0.00,Wunderground v.1.15,2013-07-23 23:21:00,
2013-07-23 19:31:00,81.6,74.1,29.74,SSW,192,3.0,3.0,78,0.00,,,0.00,Wunderground v.1.15,2013-07-23 23:31:00,
2013-07-23 19:42:00,81.3,74.2,29.74,SW,223,2.0,3.0,79,0.00,,,0.00,Wunderground v.1.15,2013-07-23 23:42:00,
2013-07-23 19:52:00,81.2,73.7,29.74,SSW,213,4.0,4.0,78,0.00,,,0.00,Wunderground v.1.15,2013-07-23 23:52:00,
2013-07-23 20:01:00,81.0,73.5,29.74,SSW,209,3.0,3.0,78,0.00,,,0.00,Wunderground v.1.15,2013-07-24 00:01:00,
2013-07-23 20:12:00,80.3,73.6,29.75,SW,234,2.0,3.0,80,0.00,,,0.00,Wunderground v.1.15,2013-07-24 00:12:00,
2013-07-23 20:22:00,79.8,73.4,29.75,WSW,242,1.0,1.0,81,0.00,,,0.00,Wunderground v.1.15,2013-07-24 00:22:00,
2013-07-23 20:32:00,79.5,73.5,29.75,SSW,196,2.0,2.0,82,0.00,,,0.00,Wunderground v.1.15,2013-07-24 00:32:00,
2013-07-23 20:42:00,79.1,73.5,29.76,SW,229,2.0,2.0,83,0.00,,,0.00,Wunderground v.1.15,2013-07-24 00:42:00,
2013-07-23 20:52:00,78.9,72.2,29.76,SW,230,4.0,6.0,80,0.00,,,0.00,Wunderground v.1.15,2013-07-24 00:52:00,
2013-07-23 21:01:00,78.7,71.6,29.77,SW,234,5.0,5.0,79,0.00,,,0.00,Wunderground v.1.15,2013-07-24 01:01:00,
2013-07-23 21:22:00,78.1,70.7,29.77,SSW,198,4.0,4.0,78,0.00,,,0.00,Wunderground v.1.15,2013-07-24 01:22:00,
2013-07-23 21:32:00,77.7,70.7,29.77,SW,218,4.0,4.0,79,0.00,,,0.00,Wunderground v.1.15,2013-07-24 01:32:00,
2013-07-23 21:52:00,77.0,70.4,29.77,WSW,246,3.0,3.0,80,0.00,,,0.00,Wunderground v.1.15,2013-07-24 01:52:00,
2013-07-23 22:01:00,76.8,70.5,29.77,SW,231,3.0,4.0,81,0.00,,,0.00,Wunderground v.1.15,2013-07-24 02:01:00,
2013-07-23 22:22:00,76.6,70.7,29.77,SW,223,5.0,5.0,82,0.00,,,0.00,Wunderground v.1.15,2013-07-24 02:22:00,
2013-07-23 22:32:00,76.4,70.9,29.78,SSW,209,3.0,3.0,83,0.00,,,0.00,Wunderground v.1.15,2013-07-24 02:32:00,
2013-07-23 22:42:00,76.2,71.0,29.78,SSW,202,3.0,4.0,84,0.00,,,0.00,Wunderground v.1.15,2013-07-24 02:42:00,
2013-07-23 22:52:00,75.8,71.0,29.78,SSW,206,3.0,3.0,85,0.00,,,0.00,Wunderground v.1.15,2013-07-24 02:52:00,
2013-07-23 23:02:00,75.5,71.0,29.78,SSW,211,2.0,5.0,86,0.00,,,0.00,Wunderground v.1.15,2013-07-24 03:02:00,
2013-07-23 23:12:00,75.4,70.9,29.78,West,261,4.0,4.0,86,0.00,,,0.00,Wunderground v.1.15,2013-07-24 03:12:00,
2013-07-23 23:22:00,75.1,70.6,29.78,SW,227,4.0,4.0,86,0.00,,,0.00,Wunderground v.1.15,2013-07-24 03:22:00,
2013-07-23 23:32:00,74.9,70.8,29.78,SW,219,4.0,4.0,87,0.00,,,0.00,Wunderground v.1.15,2013-07-24 03:32:00,
2013-07-23 23:42:00,74.5,70.4,29.78,West,264,2.0,3.0,87,0.00,,,0.00,Wunderground v.1.15,2013-07-24 03:42:00,
2013-07-23 23:51:00,74.3,70.5,29.78,SW,225,2.0,2.0,88,0.00,,,0.00,Wunderground v.1.15,2013-07-24 03:51:00,